createdAt,value
2022-11-26T00:00:24.070Z,982.64
2022-11-26T00:01:24.084Z,982.66
2022-11-26T00:02:24.187Z,982.66
2022-11-26T00:03:24.056Z,982.66
2022-11-26T00:04:24.010Z,982.69
2022-11-26T00:05:23.997Z,982.62
2022-11-26T00:06:23.978Z,982.66
2022-11-26T00:07:23.998Z,982.65
2022-11-26T00:08:23.948Z,982.64
2022-11-26T00:09:23.933Z,982.62
2022-11-26T00:10:24.118Z,982.63
2022-11-26T00:11:23.903Z,982.63
2022-11-26T00:12:23.885Z,982.63
2022-11-26T00:13:23.890Z,982.65
2022-11-26T00:14:23.852Z,982.64
2022-11-26T00:15:23.841Z,982.65
2022-11-26T00:16:23.867Z,982.65
2022-11-26T00:17:23.809Z,982.64
2022-11-26T00:18:23.804Z,982.65
2022-11-26T00:19:23.778Z,982.70
2022-11-26T00:20:23.771Z,982.70
2022-11-26T00:21:23.748Z,982.65
2022-11-26T00:22:23.729Z,982.67
2022-11-26T00:23:23.718Z,982.68
2022-11-26T00:24:23.696Z,982.70
2022-11-26T00:25:23.686Z,982.68
2022-11-26T00:26:23.666Z,982.65
2022-11-26T00:27:23.654Z,982.63
2022-11-26T00:28:23.635Z,982.61
2022-11-26T00:29:23.645Z,982.62
2022-11-26T00:30:23.608Z,982.66
2022-11-26T00:31:23.692Z,982.68
2022-11-26T00:32:23.579Z,982.72
2022-11-26T00:33:23.561Z,982.69
2022-11-26T00:34:23.545Z,982.72
2022-11-26T00:35:23.532Z,982.80
2022-11-26T00:36:23.510Z,982.83
2022-11-26T00:37:23.501Z,982.83
2022-11-26T00:38:23.480Z,982.81
2022-11-26T00:39:23.469Z,982.85
2022-11-26T00:40:23.450Z,982.83
2022-11-26T00:41:23.437Z,982.86
2022-11-26T00:42:23.418Z,982.88
2022-11-26T00:43:23.405Z,982.91
2022-11-26T00:44:23.387Z,982.92
2022-11-26T00:45:23.470Z,982.92
2022-11-26T00:46:23.416Z,982.94
2022-11-26T00:47:23.344Z,982.93
2022-11-26T00:48:23.325Z,982.94
2022-11-26T00:49:23.313Z,982.94
2022-11-26T00:50:23.294Z,982.91
2022-11-26T00:51:23.293Z,982.90
2022-11-26T00:52:23.264Z,982.90
2022-11-26T00:53:23.251Z,982.89
2022-11-26T00:54:23.232Z,982.87
2022-11-26T00:55:23.221Z,982.90
2022-11-26T00:56:23.302Z,982.90
2022-11-26T00:57:23.189Z,982.92
2022-11-26T00:58:23.171Z,982.95
2022-11-26T00:59:23.158Z,982.99
2022-11-26T01:00:23.140Z,983.04
2022-11-26T01:01:23.232Z,983.04
2022-11-26T01:02:23.145Z,983.10
2022-11-26T01:03:23.097Z,983.14
2022-11-26T01:04:23.077Z,983.16
2022-11-26T01:05:23.087Z,983.20
2022-11-26T01:06:23.049Z,983.16
2022-11-26T01:07:23.153Z,983.16
2022-11-26T01:08:23.017Z,983.19
2022-11-26T01:09:23.004Z,983.22
2022-11-26T01:10:22.986Z,983.24
2022-11-26T01:11:22.974Z,983.19
2022-11-26T01:12:22.954Z,983.27
2022-11-26T01:13:22.943Z,983.24
2022-11-26T01:14:22.927Z,983.29
2022-11-26T01:15:22.912Z,983.27
2022-11-26T01:16:22.951Z,983.27
2022-11-26T01:17:22.900Z,983.30
2022-11-26T01:18:22.863Z,983.31
2022-11-26T01:19:22.851Z,983.30
2022-11-26T01:20:25.454Z,983.29
2022-11-26T01:21:22.820Z,983.34
2022-11-26T01:22:22.801Z,983.36
2022-11-26T01:23:22.790Z,983.35
2022-11-26T01:24:22.770Z,983.29
2022-11-26T01:25:22.774Z,983.30
2022-11-26T01:26:22.740Z,983.33
2022-11-26T01:27:22.728Z,983.30
2022-11-26T01:28:22.708Z,983.31
2022-11-26T01:29:22.711Z,983.29
2022-11-26T01:30:22.684Z,983.25
2022-11-26T01:31:22.719Z,983.25
2022-11-26T01:32:26.618Z,983.24
2022-11-26T01:33:22.656Z,983.24
2022-11-26T01:34:22.617Z,983.23
2022-11-26T01:35:22.713Z,983.28
2022-11-26T01:36:22.584Z,983.29
2022-11-26T01:37:22.574Z,983.30
2022-11-26T01:38:22.555Z,983.32
2022-11-26T01:39:22.542Z,983.35
2022-11-26T01:40:22.523Z,983.39
2022-11-26T01:41:22.511Z,983.39
2022-11-26T01:42:22.493Z,983.39
2022-11-26T01:43:22.480Z,983.39
2022-11-26T01:44:22.464Z,983.45
2022-11-26T01:45:22.651Z,983.48
2022-11-26T01:46:22.432Z,983.52
2022-11-26T01:47:22.419Z,983.56
2022-11-26T01:48:22.400Z,983.56
2022-11-26T01:49:22.463Z,983.58
2022-11-26T01:50:22.370Z,983.64
2022-11-26T01:51:22.357Z,983.65
2022-11-26T01:52:22.338Z,983.69
2022-11-26T01:53:22.328Z,983.68
2022-11-26T01:54:22.510Z,983.71
2022-11-26T01:55:22.296Z,983.75
2022-11-26T01:56:22.289Z,983.78
2022-11-26T01:57:22.264Z,983.71
2022-11-26T01:58:22.246Z,983.74
2022-11-26T01:59:22.234Z,983.74
2022-11-26T02:00:22.215Z,983.68
2022-11-26T02:01:22.250Z,983.71
2022-11-26T02:02:22.319Z,983.72
2022-11-26T02:03:22.173Z,983.69
2022-11-26T02:04:22.153Z,983.73
2022-11-26T02:05:22.165Z,983.73
2022-11-26T02:06:22.123Z,983.75
2022-11-26T02:07:22.182Z,983.78
2022-11-26T02:08:22.091Z,983.73
2022-11-26T02:09:22.083Z,983.77
2022-11-26T02:10:22.063Z,983.82
2022-11-26T02:11:22.053Z,983.83
2022-11-26T02:12:22.030Z,983.90
2022-11-26T02:13:22.018Z,983.93
2022-11-26T02:14:22.000Z,983.97
2022-11-26T02:15:21.988Z,983.99
2022-11-26T02:16:22.038Z,983.97
2022-11-26T02:17:21.956Z,984.07
2022-11-26T02:18:21.938Z,984.05
2022-11-26T02:19:21.928Z,984.07
2022-11-26T02:20:21.910Z,984.07
2022-11-26T02:21:21.914Z,984.10
2022-11-26T02:22:21.878Z,984.10
2022-11-26T02:23:21.867Z,984.08
2022-11-26T02:24:21.846Z,984.13
2022-11-26T02:25:21.836Z,984.12
2022-11-26T02:26:21.815Z,984.13
2022-11-26T02:27:21.804Z,984.15
2022-11-26T02:28:21.783Z,984.12
2022-11-26T02:29:21.772Z,984.16
2022-11-26T02:30:21.754Z,984.17
2022-11-26T02:31:21.790Z,984.19
2022-11-26T02:32:21.721Z,984.16
2022-11-26T02:33:21.712Z,984.20
2022-11-26T02:34:21.692Z,984.18
2022-11-26T02:35:21.779Z,984.21
2022-11-26T02:36:21.661Z,984.21
2022-11-26T02:37:21.670Z,984.27
2022-11-26T02:38:21.632Z,984.29
2022-11-26T02:39:21.617Z,984.29
2022-11-26T02:40:21.598Z,984.33
2022-11-26T02:41:21.594Z,984.29
2022-11-26T02:42:21.570Z,984.29
2022-11-26T02:43:21.555Z,984.32
2022-11-26T02:44:21.536Z,984.39
2022-11-26T02:45:21.529Z,984.35
2022-11-26T02:46:21.528Z,984.31
2022-11-26T02:47:21.494Z,984.36
2022-11-26T02:48:21.473Z,984.37
2022-11-26T02:49:21.461Z,984.39
2022-11-26T02:50:21.443Z,984.39
2022-11-26T02:51:21.447Z,984.43
2022-11-26T02:52:21.412Z,984.47
2022-11-26T02:53:21.476Z,984.41
2022-11-26T02:54:21.381Z,984.44
2022-11-26T02:55:21.370Z,984.45
2022-11-26T02:56:21.354Z,984.44
2022-11-26T02:57:21.339Z,984.45
2022-11-26T02:58:21.324Z,984.45
2022-11-26T02:59:21.319Z,984.40
2022-11-26T03:00:21.293Z,984.43
2022-11-26T03:01:21.306Z,984.46
2022-11-26T03:02:21.267Z,984.45
2022-11-26T03:03:21.247Z,984.46
2022-11-26T03:04:21.303Z,984.43
2022-11-26T03:05:21.216Z,984.44
2022-11-26T03:06:21.198Z,984.45
2022-11-26T03:07:21.247Z,984.43
2022-11-26T03:08:21.166Z,984.44
2022-11-26T03:09:21.174Z,984.41
2022-11-26T03:10:21.136Z,984.42
2022-11-26T03:11:21.391Z,984.40
2022-11-26T03:12:21.107Z,984.46
2022-11-26T03:13:21.092Z,984.44
2022-11-26T03:14:21.074Z,984.44
2022-11-26T03:15:21.063Z,984.48
2022-11-26T03:16:21.074Z,984.49
2022-11-26T03:17:21.031Z,984.50
2022-11-26T03:18:21.013Z,984.47
2022-11-26T03:19:21.000Z,984.48
2022-11-26T03:20:20.980Z,984.51
2022-11-26T03:21:20.969Z,984.49
2022-11-26T03:22:20.952Z,984.51
2022-11-26T03:23:20.938Z,984.51
2022-11-26T03:24:20.919Z,984.51
2022-11-26T03:25:20.930Z,984.53
2022-11-26T03:26:20.890Z,984.51
2022-11-26T03:27:20.878Z,984.53
2022-11-26T03:28:20.859Z,984.54
2022-11-26T03:29:20.847Z,984.52
2022-11-26T03:30:20.829Z,984.52
2022-11-26T03:31:20.874Z,984.53
2022-11-26T03:32:20.797Z,984.50
2022-11-26T03:33:20.786Z,984.51
2022-11-26T03:34:20.767Z,984.51
2022-11-26T03:35:20.755Z,984.47
2022-11-26T03:36:20.736Z,984.51
2022-11-26T03:37:20.729Z,984.55
2022-11-26T03:38:20.705Z,984.52
2022-11-26T03:39:20.695Z,984.49
2022-11-26T03:40:20.675Z,984.52
2022-11-26T03:41:20.685Z,984.53
2022-11-26T03:42:20.647Z,984.53
2022-11-26T03:43:20.633Z,984.52
2022-11-26T03:44:20.614Z,984.52
2022-11-26T03:45:20.601Z,984.54
2022-11-26T03:46:20.619Z,984.59
2022-11-26T03:47:20.571Z,984.58
2022-11-26T03:48:20.552Z,984.58
2022-11-26T03:49:20.541Z,984.56
2022-11-26T03:50:20.521Z,984.54
2022-11-26T03:51:20.510Z,984.54
2022-11-26T03:52:20.491Z,984.44
2022-11-26T03:53:20.481Z,984.50
2022-11-26T03:54:20.460Z,984.48
2022-11-26T03:55:20.448Z,984.50
2022-11-26T03:56:20.432Z,984.46
2022-11-26T03:57:20.438Z,984.48
2022-11-26T03:58:20.399Z,984.47
2022-11-26T03:59:20.387Z,984.46
2022-11-26T04:00:20.368Z,984.50
2022-11-26T04:01:20.495Z,984.47
2022-11-26T04:02:20.338Z,984.48
2022-11-26T04:03:20.399Z,984.49
2022-11-26T04:04:20.308Z,984.47
2022-11-26T04:05:20.296Z,984.47
2022-11-26T04:06:20.378Z,984.47
2022-11-26T04:07:20.314Z,984.47
2022-11-26T04:08:20.247Z,984.43
2022-11-26T04:09:20.236Z,984.46
2022-11-26T04:10:20.216Z,984.52
2022-11-26T04:11:20.205Z,984.50
2022-11-26T04:12:20.184Z,984.54
2022-11-26T04:13:20.196Z,984.51
2022-11-26T04:14:20.158Z,984.56
2022-11-26T04:15:20.139Z,984.55
2022-11-26T04:16:20.140Z,984.54
2022-11-26T04:17:20.108Z,984.56
2022-11-26T04:18:20.098Z,984.52
2022-11-26T04:19:20.078Z,984.52
2022-11-26T04:20:20.084Z,984.47
2022-11-26T04:21:20.048Z,984.46
2022-11-26T04:22:20.035Z,984.41
2022-11-26T04:23:20.016Z,984.38
2022-11-26T04:24:20.004Z,984.36
2022-11-26T04:25:19.986Z,984.35
2022-11-26T04:26:19.973Z,984.33
2022-11-26T04:27:19.956Z,984.31
2022-11-26T04:28:19.943Z,984.33
2022-11-26T04:29:19.943Z,984.37
2022-11-26T04:30:19.913Z,984.33
2022-11-26T04:31:19.919Z,984.35
2022-11-26T04:32:19.882Z,984.36
2022-11-26T04:33:19.865Z,984.36
2022-11-26T04:34:53.056Z,984.40
2022-11-26T04:35:19.839Z,984.35
2022-11-26T04:36:19.824Z,984.41
2022-11-26T04:37:19.805Z,984.40
2022-11-26T04:38:25.353Z,984.41
2022-11-26T04:39:19.773Z,984.42
2022-11-26T04:40:19.756Z,984.49
2022-11-26T04:41:19.743Z,984.47
2022-11-26T04:42:19.726Z,984.48
2022-11-26T04:43:19.714Z,984.49
2022-11-26T04:44:19.692Z,984.56
2022-11-26T04:45:19.800Z,984.51
2022-11-26T04:46:19.714Z,984.56
2022-11-26T04:47:19.649Z,984.49
2022-11-26T04:48:19.632Z,984.51
2022-11-26T04:50:19.603Z,984.63
2022-11-26T04:51:19.585Z,984.62
2022-11-26T04:52:19.575Z,984.63
2022-11-26T04:53:19.553Z,984.62
2022-11-26T04:54:19.543Z,984.57
2022-11-26T04:55:19.524Z,984.59
2022-11-26T04:56:19.511Z,984.56
2022-11-26T04:57:19.492Z,984.54
2022-11-26T04:58:19.480Z,984.57
2022-11-26T04:59:19.462Z,984.53
2022-11-26T05:00:19.448Z,984.53
2022-11-26T05:01:19.504Z,984.56
2022-11-26T05:02:19.458Z,984.60
2022-11-26T05:03:19.403Z,984.52
2022-11-26T05:04:19.388Z,984.57
2022-11-26T05:05:19.367Z,984.54
2022-11-26T05:06:19.359Z,984.57
2022-11-26T05:07:19.370Z,984.57
2022-11-26T05:08:19.324Z,984.58
2022-11-26T05:09:19.308Z,984.55
2022-11-26T05:10:19.295Z,984.58
2022-11-26T05:11:19.277Z,984.52
2022-11-26T05:12:19.264Z,984.58
2022-11-26T05:13:19.257Z,984.55
2022-11-26T05:14:19.233Z,984.61
2022-11-26T05:15:19.214Z,984.60
2022-11-26T05:16:19.256Z,984.58
2022-11-26T05:17:19.238Z,984.61
2022-11-26T05:18:19.171Z,984.64
2022-11-26T05:19:19.156Z,984.64
2022-11-26T05:20:19.140Z,984.66
2022-11-26T05:21:19.121Z,984.65
2022-11-26T05:22:19.109Z,984.63
2022-11-26T05:23:19.092Z,984.65
2022-11-26T05:25:19.062Z,984.67
2022-11-26T05:26:19.044Z,984.74
2022-11-26T05:27:19.033Z,984.75
2022-11-26T05:28:19.014Z,984.76
2022-11-26T05:29:19.003Z,984.81
2022-11-26T05:30:18.981Z,984.79
2022-11-26T05:31:18.993Z,984.78
2022-11-26T05:32:18.951Z,984.79
2022-11-26T05:33:18.977Z,984.81
2022-11-26T05:34:18.923Z,984.82
2022-11-26T05:35:18.909Z,984.80
2022-11-26T05:36:18.889Z,984.82
2022-11-26T05:37:18.877Z,984.85
2022-11-26T05:38:18.858Z,984.88
2022-11-26T05:39:18.846Z,984.89
2022-11-26T05:40:18.829Z,984.88
2022-11-26T05:41:18.816Z,984.88
2022-11-26T05:42:18.797Z,984.92
2022-11-26T05:43:18.785Z,984.93
2022-11-26T05:44:18.768Z,984.95
2022-11-26T05:45:18.754Z,984.98
2022-11-26T05:46:18.817Z,984.97
2022-11-26T05:47:18.722Z,985.00
2022-11-26T05:48:18.705Z,985.02
2022-11-26T05:49:18.713Z,985.05
2022-11-26T05:50:18.674Z,985.07
2022-11-26T05:51:18.663Z,985.07
2022-11-26T05:52:18.642Z,985.10
2022-11-26T05:53:18.631Z,985.08
2022-11-26T05:54:18.617Z,985.09
2022-11-26T05:55:18.601Z,985.11
2022-11-26T05:56:18.583Z,985.13
2022-11-26T05:57:18.569Z,985.11
2022-11-26T05:58:18.550Z,985.13
2022-11-26T05:59:18.555Z,985.14
2022-11-26T06:00:18.520Z,985.16
2022-11-26T06:01:18.509Z,985.16
2022-11-26T06:02:18.705Z,985.15
2022-11-26T06:03:20.392Z,985.16
2022-11-26T06:04:18.458Z,985.13
2022-11-26T06:05:18.464Z,985.15
2022-11-26T06:06:18.428Z,985.20
2022-11-26T06:07:18.483Z,985.16
2022-11-26T06:08:18.402Z,985.17
2022-11-26T06:09:18.383Z,985.16
2022-11-26T06:10:18.369Z,985.15
2022-11-26T06:11:18.353Z,985.17
2022-11-26T06:12:18.336Z,985.20
2022-11-26T06:13:18.321Z,985.22
2022-11-26T06:14:18.303Z,985.26
2022-11-26T06:15:18.327Z,985.25
2022-11-26T06:16:18.331Z,985.27
2022-11-26T06:17:18.260Z,985.27
2022-11-26T06:18:18.242Z,985.28
2022-11-26T06:19:18.228Z,985.27
2022-11-26T06:20:18.216Z,985.25
2022-11-26T06:21:18.219Z,985.28
2022-11-26T06:22:18.179Z,985.22
2022-11-26T06:23:18.168Z,985.25
2022-11-26T06:24:18.147Z,985.24
2022-11-26T06:25:18.135Z,985.25
2022-11-26T06:26:18.116Z,985.21
2022-11-26T06:27:18.104Z,985.24
2022-11-26T06:28:18.085Z,985.28
2022-11-26T06:29:18.078Z,985.25
2022-11-26T06:30:18.055Z,985.26
2022-11-26T06:31:18.069Z,985.26
2022-11-26T06:32:18.023Z,985.28
2022-11-26T06:33:18.011Z,985.29
2022-11-26T06:34:17.991Z,985.28
2022-11-26T06:35:17.983Z,985.27
2022-11-26T06:36:17.961Z,985.28
2022-11-26T06:37:17.970Z,985.35
2022-11-26T06:38:17.931Z,985.39
2022-11-26T06:39:17.917Z,985.35
2022-11-26T06:40:17.901Z,985.37
2022-11-26T06:41:18.089Z,985.41
2022-11-26T06:42:17.881Z,985.39
2022-11-26T06:43:17.856Z,985.39
2022-11-26T06:44:17.839Z,985.47
2022-11-26T06:45:17.824Z,985.43
2022-11-26T06:46:17.829Z,985.48
2022-11-26T06:47:17.807Z,985.50
2022-11-26T06:48:17.776Z,985.52
2022-11-26T06:49:17.761Z,985.56
2022-11-26T06:50:17.844Z,985.52
2022-11-26T06:51:17.731Z,985.63
2022-11-26T06:52:17.713Z,985.60
2022-11-26T06:53:17.721Z,985.60
2022-11-26T06:54:17.681Z,985.63
2022-11-26T06:55:17.819Z,985.66
2022-11-26T06:56:19.067Z,985.64
2022-11-26T06:57:17.637Z,985.68
2022-11-26T06:58:17.619Z,985.69
2022-11-26T06:59:17.607Z,985.68
2022-11-26T07:00:17.589Z,985.68
2022-11-26T07:01:17.680Z,985.65
2022-11-26T07:02:17.601Z,985.65
2022-11-26T07:03:22.407Z,985.63
2022-11-26T07:04:17.524Z,985.70
2022-11-26T07:05:17.514Z,985.69
2022-11-26T07:06:17.492Z,985.70
2022-11-26T07:07:17.532Z,985.67
2022-11-26T07:08:17.462Z,985.74
2022-11-26T07:09:17.466Z,985.69
2022-11-26T07:10:17.431Z,985.70
2022-11-26T07:11:17.619Z,985.68
2022-11-26T07:12:17.397Z,985.65
2022-11-26T07:13:17.384Z,985.64
2022-11-26T07:14:17.466Z,985.67
2022-11-26T07:15:17.354Z,985.71
2022-11-26T07:16:17.421Z,985.70
2022-11-26T07:17:17.337Z,985.68
2022-11-26T07:18:17.302Z,985.65
2022-11-26T07:19:17.290Z,985.69
2022-11-26T07:20:17.273Z,985.65
2022-11-26T07:21:17.259Z,985.72
2022-11-26T07:22:17.245Z,985.72
2022-11-26T07:23:17.228Z,985.76
2022-11-26T07:24:17.207Z,985.78
2022-11-26T07:25:17.221Z,985.79
2022-11-26T07:26:17.194Z,985.79
2022-11-26T07:27:17.193Z,985.84
2022-11-26T07:28:17.144Z,985.83
2022-11-26T07:29:17.132Z,985.88
2022-11-26T07:30:17.114Z,985.87
2022-11-26T07:31:17.408Z,985.93
2022-11-26T07:32:17.087Z,985.98
2022-11-26T07:33:17.069Z,986.01
2022-11-26T07:34:17.051Z,986.05
2022-11-26T07:35:17.038Z,986.05
2022-11-26T07:36:17.018Z,986.05
2022-11-26T07:37:17.006Z,986.08
2022-11-26T07:38:16.988Z,986.05
2022-11-26T07:39:16.979Z,986.05
2022-11-26T07:40:16.957Z,986.06
2022-11-26T07:41:16.965Z,986.10
2022-11-26T07:42:53.240Z,986.10
2022-11-26T07:43:16.913Z,986.12
2022-11-26T07:44:16.901Z,986.18
2022-11-26T07:45:16.879Z,986.18
2022-11-26T07:46:16.889Z,986.17
2022-11-26T07:47:16.855Z,986.19
2022-11-26T07:48:17.168Z,986.20
2022-11-26T07:49:16.816Z,986.18
2022-11-26T07:50:16.806Z,986.20
2022-11-26T07:51:16.786Z,986.21
2022-11-26T07:52:16.773Z,986.22
2022-11-26T07:53:16.756Z,986.23
2022-11-26T07:54:16.742Z,986.24
2022-11-26T07:55:16.722Z,986.27
2022-11-26T07:56:16.710Z,986.25
2022-11-26T07:57:16.709Z,986.23
2022-11-26T07:58:16.678Z,986.23
2022-11-26T07:59:16.659Z,986.25
2022-11-26T08:00:16.647Z,986.22
2022-11-26T08:01:16.694Z,986.26
2022-11-26T08:02:16.661Z,986.26
2022-11-26T08:03:16.601Z,986.23
2022-11-26T08:04:16.583Z,986.21
2022-11-26T08:05:16.563Z,986.20
2022-11-26T08:06:16.551Z,986.21
2022-11-26T08:07:24.363Z,986.24
2022-11-26T08:08:16.585Z,986.24
2022-11-26T08:09:16.500Z,986.26
2022-11-26T08:10:16.489Z,986.23
2022-11-26T08:11:16.470Z,986.23
2022-11-26T08:12:16.466Z,986.26
2022-11-26T08:13:16.458Z,986.18
2022-11-26T08:14:16.426Z,986.19
2022-11-26T08:15:16.407Z,986.21
2022-11-26T08:16:16.441Z,986.22
2022-11-26T08:17:16.426Z,986.21
2022-11-26T08:18:16.564Z,986.20
2022-11-26T08:19:16.351Z,986.18
2022-11-26T08:20:16.330Z,986.20
2022-11-26T08:21:16.312Z,986.24
2022-11-26T08:22:16.403Z,986.24
2022-11-26T08:23:16.282Z,986.26
2022-11-26T08:24:16.268Z,986.24
2022-11-26T08:25:16.250Z,986.24
2022-11-26T08:26:29.095Z,986.23
2022-11-26T08:27:16.221Z,986.20
2022-11-26T08:28:16.206Z,986.21
2022-11-26T08:29:16.208Z,986.20
2022-11-26T08:30:16.173Z,986.19
2022-11-26T08:31:16.223Z,986.22
2022-11-26T08:32:16.142Z,986.21
2022-11-26T08:33:16.131Z,986.19
2022-11-26T08:34:16.201Z,986.21
2022-11-26T08:35:16.100Z,986.21
2022-11-26T08:36:16.080Z,986.16
2022-11-26T08:37:16.069Z,986.21
2022-11-26T08:38:16.051Z,986.25
2022-11-26T08:39:16.038Z,986.25
2022-11-26T08:40:16.020Z,986.20
2022-11-26T08:41:16.008Z,986.25
2022-11-26T08:42:15.992Z,986.26
2022-11-26T08:43:15.979Z,986.26
2022-11-26T08:44:15.959Z,986.26
2022-11-26T08:45:15.968Z,986.28
2022-11-26T08:46:16.010Z,986.24
2022-11-26T08:47:15.923Z,986.22
2022-11-26T08:48:15.898Z,986.25
2022-11-26T08:49:15.887Z,986.27
2022-11-26T08:50:15.869Z,986.22
2022-11-26T08:51:15.858Z,986.22
2022-11-26T08:52:15.845Z,986.20
2022-11-26T08:53:15.826Z,986.18
2022-11-26T08:54:15.810Z,986.24
2022-11-26T08:55:15.800Z,986.23
2022-11-26T08:56:15.780Z,986.21
2022-11-26T08:57:15.768Z,986.16
2022-11-26T08:58:15.761Z,986.22
2022-11-26T08:59:15.738Z,986.22
2022-11-26T09:00:15.720Z,986.23
2022-11-26T09:01:15.868Z,986.26
2022-11-26T09:02:18.806Z,986.27
2022-11-26T09:03:15.689Z,986.30
2022-11-26T09:04:15.760Z,986.26
2022-11-26T09:05:15.649Z,986.31
2022-11-26T09:06:15.652Z,986.27
2022-11-26T09:07:15.642Z,986.31
2022-11-26T09:08:15.603Z,986.30
2022-11-26T09:09:15.819Z,986.32
2022-11-26T09:10:15.572Z,986.32
2022-11-26T09:11:15.559Z,986.31
2022-11-26T09:12:15.541Z,986.30
2022-11-26T09:13:20.823Z,986.35
2022-11-26T09:14:15.510Z,986.38
2022-11-26T09:15:15.548Z,986.35
2022-11-26T09:16:15.583Z,986.39
2022-11-26T09:17:15.487Z,986.39
2022-11-26T09:18:15.451Z,986.42
2022-11-26T09:19:15.438Z,986.44
2022-11-26T09:20:15.426Z,986.45
2022-11-26T09:21:15.409Z,986.42
2022-11-26T09:22:15.390Z,986.43
2022-11-26T09:23:15.378Z,986.41
2022-11-26T09:24:15.361Z,986.38
2022-11-26T09:25:15.347Z,986.33
2022-11-26T09:26:15.330Z,986.33
2022-11-26T09:27:15.318Z,986.37
2022-11-26T09:28:15.306Z,986.36
2022-11-26T09:29:15.303Z,986.38
2022-11-26T09:30:15.270Z,986.39
2022-11-26T09:31:15.295Z,986.39
2022-11-26T09:32:24.336Z,986.41
2022-11-26T09:34:15.232Z,986.43
2022-11-26T09:35:15.198Z,986.48
2022-11-26T09:36:15.186Z,986.49
2022-11-26T09:37:15.167Z,986.52
2022-11-26T09:38:15.157Z,986.52
2022-11-26T09:39:15.138Z,986.53
2022-11-26T09:40:15.126Z,986.53
2022-11-26T09:41:15.111Z,986.57
2022-11-26T09:42:15.097Z,986.54
2022-11-26T09:43:15.079Z,986.57
2022-11-26T09:44:15.068Z,986.56
2022-11-26T09:45:15.050Z,986.59
2022-11-26T09:46:15.106Z,986.54
2022-11-26T09:47:15.024Z,986.61
2022-11-26T09:48:15.009Z,986.58
2022-11-26T09:49:14.993Z,986.61
2022-11-26T09:50:15.001Z,986.56
2022-11-26T09:51:14.965Z,986.59
2022-11-26T09:52:14.955Z,986.59
2022-11-26T09:53:14.936Z,986.61
2022-11-26T09:54:14.925Z,986.62
2022-11-26T09:55:14.909Z,986.59
2022-11-26T09:56:14.897Z,986.62
2022-11-26T09:57:14.879Z,986.60
2022-11-26T09:58:14.868Z,986.54
2022-11-26T09:59:14.851Z,986.56
2022-11-26T10:00:14.839Z,986.57
2022-11-26T10:01:14.889Z,986.55
2022-11-26T10:02:14.892Z,986.57
2022-11-26T10:03:14.797Z,986.55
2022-11-26T10:04:14.782Z,986.57
2022-11-26T10:05:18.482Z,986.52
2022-11-26T10:06:14.775Z,986.54
2022-11-26T10:07:14.797Z,986.56
2022-11-26T10:08:14.725Z,986.56
2022-11-26T10:09:14.712Z,986.56
2022-11-26T10:10:14.698Z,986.59
2022-11-26T10:11:14.681Z,986.55
2022-11-26T10:12:24.984Z,986.54
2022-11-26T10:13:19.536Z,986.55
2022-11-26T10:14:14.640Z,986.57
2022-11-26T10:15:14.630Z,986.62
2022-11-26T10:16:14.687Z,986.59
2022-11-26T10:17:14.597Z,986.58
2022-11-26T10:18:14.588Z,986.59
2022-11-26T10:19:14.569Z,986.56
2022-11-26T10:20:14.557Z,986.55
2022-11-26T10:21:14.541Z,986.54
2022-11-26T10:22:14.551Z,986.48
2022-11-26T10:23:14.563Z,986.48
2022-11-26T10:24:14.504Z,986.46
2022-11-26T10:25:14.484Z,986.42
2022-11-26T10:26:14.477Z,986.43
2022-11-26T10:27:14.458Z,986.41
2022-11-26T10:28:14.496Z,986.40
2022-11-26T10:29:14.428Z,986.37
2022-11-26T10:30:14.420Z,986.33
2022-11-26T10:31:14.415Z,986.41
2022-11-26T10:32:14.391Z,986.36
2022-11-26T10:33:14.371Z,986.37
2022-11-26T10:34:14.360Z,986.34
2022-11-26T10:35:14.349Z,986.32
2022-11-26T10:36:14.334Z,986.33
2022-11-26T10:37:14.318Z,986.32
2022-11-26T10:38:14.330Z,986.32
2022-11-26T10:39:14.290Z,986.31
2022-11-26T10:40:14.278Z,986.35
2022-11-26T10:41:14.261Z,986.32
2022-11-26T10:42:14.253Z,986.32
2022-11-26T10:43:14.236Z,986.35
2022-11-26T10:44:14.226Z,986.35
2022-11-26T10:45:14.207Z,986.37
2022-11-26T10:46:14.269Z,986.35
2022-11-26T10:47:14.181Z,986.32
2022-11-26T10:48:14.170Z,986.34
2022-11-26T10:49:14.152Z,986.37
2022-11-26T10:50:39.711Z,986.37
2022-11-26T10:51:14.128Z,986.35
2022-11-26T10:52:14.114Z,986.31
2022-11-26T10:53:14.097Z,986.31
2022-11-26T10:54:14.143Z,986.30
2022-11-26T10:55:14.070Z,986.30
2022-11-26T10:56:14.061Z,986.32
2022-11-26T10:57:14.043Z,986.29
2022-11-26T10:58:14.036Z,986.31
2022-11-26T10:59:14.016Z,986.28
2022-11-26T11:00:14.015Z,986.30
2022-11-26T11:01:14.082Z,986.30
2022-11-26T11:02:13.995Z,986.33
2022-11-26T11:03:13.969Z,986.30
2022-11-26T11:04:13.953Z,986.27
2022-11-26T11:05:13.935Z,986.27
2022-11-26T11:06:13.924Z,986.27
2022-11-26T11:07:13.939Z,986.24
2022-11-26T11:08:13.898Z,986.24
2022-11-26T11:09:13.881Z,986.21
2022-11-26T11:10:13.889Z,986.19
2022-11-26T11:11:13.862Z,986.20
2022-11-26T11:12:13.844Z,986.17
2022-11-26T11:13:13.832Z,986.15
2022-11-26T11:14:13.819Z,986.18
2022-11-26T11:15:13.801Z,986.16
2022-11-26T11:16:13.895Z,986.09
2022-11-26T11:17:13.782Z,986.08
2022-11-26T11:18:13.767Z,986.09
2022-11-26T11:19:13.748Z,986.08
2022-11-26T11:20:13.737Z,986.06
2022-11-26T11:21:13.720Z,986.13
2022-11-26T11:22:13.713Z,986.08
2022-11-26T11:23:13.694Z,986.09
2022-11-26T11:24:13.684Z,986.10
2022-11-26T11:25:13.669Z,986.11
2022-11-26T11:26:13.677Z,986.05
2022-11-26T11:27:13.645Z,986.04
2022-11-26T11:28:13.637Z,986.03
2022-11-26T11:29:13.618Z,986.04
2022-11-26T11:30:13.703Z,986.03
2022-11-26T11:31:13.638Z,986.02
2022-11-26T11:32:13.579Z,986.07
2022-11-26T11:33:13.559Z,985.99
2022-11-26T11:34:13.551Z,985.99
2022-11-26T11:35:13.735Z,985.97
2022-11-26T11:36:13.522Z,985.92
2022-11-26T11:37:14.820Z,985.94
2022-11-26T11:38:13.496Z,985.95
2022-11-26T11:39:13.480Z,985.96
2022-11-26T11:40:17.090Z,985.97
2022-11-26T11:41:13.453Z,985.97
2022-11-26T11:42:13.460Z,985.98
2022-11-26T11:43:13.428Z,985.93
2022-11-26T11:44:13.430Z,985.96
2022-11-26T11:45:13.401Z,985.92
2022-11-26T11:46:13.439Z,985.89
2022-11-26T11:47:13.374Z,985.86
2022-11-26T11:48:13.364Z,985.89
2022-11-26T11:49:13.347Z,985.87
2022-11-26T11:50:13.337Z,985.85
2022-11-26T11:51:13.325Z,985.88
2022-11-26T11:52:13.309Z,985.87
2022-11-26T11:53:13.294Z,985.84
2022-11-26T11:54:13.284Z,985.84
2022-11-26T11:55:13.268Z,985.80
2022-11-26T11:56:13.257Z,985.80
2022-11-26T11:57:13.242Z,985.84
2022-11-26T11:58:13.251Z,985.81
2022-11-26T11:59:13.215Z,985.83
2022-11-26T12:00:13.228Z,985.83
2022-11-26T12:01:13.189Z,985.83
2022-11-26T12:02:13.251Z,985.78
2022-11-26T12:03:13.167Z,985.82
2022-11-26T12:04:18.125Z,985.84
2022-11-26T12:05:13.233Z,985.84
2022-11-26T12:06:13.126Z,985.82
2022-11-26T12:07:13.123Z,985.85
2022-11-26T12:08:13.100Z,985.81
2022-11-26T12:09:13.085Z,985.81
2022-11-26T12:10:13.076Z,985.80
2022-11-26T12:11:13.059Z,985.73
2022-11-26T12:12:13.049Z,985.72
2022-11-26T12:13:13.033Z,985.72
2022-11-26T12:14:13.039Z,985.68
2022-11-26T12:15:13.019Z,985.71
2022-11-26T12:16:13.015Z,985.69
2022-11-26T12:17:12.980Z,985.64
2022-11-26T12:18:12.971Z,985.62
2022-11-26T12:19:12.954Z,985.65
2022-11-26T12:20:12.946Z,985.64
2022-11-26T12:21:12.929Z,985.66
2022-11-26T12:22:12.920Z,985.61
2022-11-26T12:23:14.837Z,985.64
2022-11-26T12:24:12.892Z,985.66
2022-11-26T12:25:12.883Z,985.65
2022-11-26T12:26:12.870Z,985.67
2022-11-26T12:27:12.853Z,985.62
2022-11-26T12:28:12.844Z,985.63
2022-11-26T12:29:12.825Z,985.60
2022-11-26T12:30:12.832Z,985.60
2022-11-26T12:31:12.801Z,985.61